Aviation Digital Data Service (ADDS)

Output produced by TAFs form (0434 UTC 21 November 2017)
found at http://www.aviationweather.gov/adds/tafs/
 
KABE 202326Z 2100/2124 23004KT P6SM SCT250 
     FM211600 21008KT P6SM SCT250